sensor_id;sensor_type;location;lat;lon;timestamp;temperature;humidity
7028;DHT22;3555;53.248;10.336;2023-08-20T00:01:40;22.40;99.90
7028;DHT22;3555;53.248;10.336;2023-08-20T00:04:08;22.40;99.90
7028;DHT22;3555;53.248;10.336;2023-08-20T00:06:37;22.30;99.90
7028;DHT22;3555;53.248;10.336;2023-08-20T00:09:05;22.30;99.90
7028;DHT22;3555;53.248;10.336;2023-08-20T00:11:34;22.20;99.90
7028;DHT22;3555;53.248;10.336;2023-08-20T00:14:00;22.20;99.90
7028;DHT22;3555;53.248;10.336;2023-08-20T00:16:28;22.00;99.90
7028;DHT22;3555;53.248;10.336;2023-08-20T00:18:56;22.00;99.90
7028;DHT22;3555;53.248;10.336;2023-08-20T00:21:23;22.00;99.90
7028;DHT22;3555;53.248;10.336;2023-08-20T00:23:52;21.90;99.90
7028;DHT22;3555;53.248;10.336;2023-08-20T00:26:19;21.90;99.90
7028;DHT22;3555;53.248;10.336;2023-08-20T00:28:46;21.80;99.90
7028;DHT22;3555;53.248;10.336;2023-08-20T00:31:13;21.80;99.90
7028;DHT22;3555;53.248;10.336;2023-08-20T00:33:40;21.70;99.90
7028;DHT22;3555;53.248;10.336;2023-08-20T00:36:06;21.70;99.90
7028;DHT22;3555;53.248;10.336;2023-08-20T00:38:33;21.80;99.90
7028;DHT22;3555;53.248;10.336;2023-08-20T00:41:01;21.70;99.90
7028;DHT22;3555;53.248;10.336;2023-08-20T00:43:28;21.70;99.90
7028;DHT22;3555;53.248;10.336;2023-08-20T00:45:55;21.60;99.90
7028;DHT22;3555;53.248;10.336;2023-08-20T00:48:23;21.60;99.90
7028;DHT22;3555;53.248;10.336;2023-08-20T00:50:50;21.60;99.90
7028;DHT22;3555;53.248;10.336;2023-08-20T00:53:17;21.60;99.90
7028;DHT22;3555;53.248;10.336;2023-08-20T00:55:44;21.60;99.90
7028;DHT22;3555;53.248;10.336;2023-08-20T00:58:12;21.60;99.90
7028;DHT22;3555;53.248;10.336;2023-08-20T01:00:40;21.50;99.90
7028;DHT22;3555;53.248;10.336;2023-08-20T01:03:07;21.60;99.90
7028;DHT22;3555;53.248;10.336;2023-08-20T01:05:42;21.60;99.90
7028;DHT22;3555;53.248;10.336;2023-08-20T01:08:25;21.50;99.90
7028;DHT22;3555;53.248;10.336;2023-08-20T01:11:00;21.50;99.90
7028;DHT22;3555;53.248;10.336;2023-08-20T01:13:29;21.50;99.90
7028;DHT22;3555;53.248;10.336;2023-08-20T01:15:56;21.40;99.90
7028;DHT22;3555;53.248;10.336;2023-08-20T01:18:23;21.30;99.90
7028;DHT22;3555;53.248;10.336;2023-08-20T01:20:55;21.30;99.90
7028;DHT22;3555;53.248;10.336;2023-08-20T01:23:56;21.30;99.90
7028;DHT22;3555;53.248;10.336;2023-08-20T01:26:40;21.30;99.90
7028;DHT22;3555;53.248;10.336;2023-08-20T01:29:12;21.20;99.90
7028;DHT22;3555;53.248;10.336;2023-08-20T01:31:40;21.20;99.90
7028;DHT22;3555;53.248;10.336;2023-08-20T01:34:07;21.10;99.90
7028;DHT22;3555;53.248;10.336;2023-08-20T01:36:34;21.00;99.90
7028;DHT22;3555;53.248;10.336;2023-08-20T01:39:01;21.00;99.90
7028;DHT22;3555;53.248;10.336;2023-08-20T01:41:28;21.00;99.90
7028;DHT22;3555;53.248;10.336;2023-08-20T01:43:55;20.90;99.90
7028;DHT22;3555;53.248;10.336;2023-08-20T01:46:23;20.80;99.90
7028;DHT22;3555;53.248;10.336;2023-08-20T01:48:50;20.80;99.90
7028;DHT22;3555;53.248;10.336;2023-08-20T01:51:17;20.90;99.90
7028;DHT22;3555;53.248;10.336;2023-08-20T01:53:44;20.80;99.90
7028;DHT22;3555;53.248;10.336;2023-08-20T01:56:11;20.50;99.90
7028;DHT22;3555;53.248;10.336;2023-08-20T01:58:38;20.20;99.90
7028;DHT22;3555;53.248;10.336;2023-08-20T02:01:06;20.20;99.90
7028;DHT22;3555;53.248;10.336;2023-08-20T02:03:35;20.20;99.90
7028;DHT22;3555;53.248;10.336;2023-08-20T02:06:02;20.10;99.90
7028;DHT22;3555;53.248;10.336;2023-08-20T02:08:29;20.20;99.90
7028;DHT22;3555;53.248;10.336;2023-08-20T02:11:00;20.10;99.90
7028;DHT22;3555;53.248;10.336;2023-08-20T02:13:28;20.00;99.90
7028;DHT22;3555;53.248;10.336;2023-08-20T02:15:58;20.10;99.90
7028;DHT22;3555;53.248;10.336;2023-08-20T02:18:25;20.10;99.90
7028;DHT22;3555;53.248;10.336;2023-08-20T02:20:54;20.10;99.90
7028;DHT22;3555;53.248;10.336;2023-08-20T02:23:20;20.10;99.90
7028;DHT22;3555;53.248;10.336;2023-08-20T02:25:47;20.10;99.90
7028;DHT22;3555;53.248;10.336;2023-08-20T02:28:14;20.20;99.90
7028;DHT22;3555;53.248;10.336;2023-08-20T02:30:42;20.20;99.90
7028;DHT22;3555;53.248;10.336;2023-08-20T02:33:09;20.20;99.90
7028;DHT22;3555;53.248;10.336;2023-08-20T02:35:36;20.20;99.90
7028;DHT22;3555;53.248;10.336;2023-08-20T02:38:05;20.20;99.90
7028;DHT22;3555;53.248;10.336;2023-08-20T02:40:39;20.20;99.90
7028;DHT22;3555;53.248;10.336;2023-08-20T02:43:06;20.10;99.90
7028;DHT22;3555;53.248;10.336;2023-08-20T02:45:39;19.90;99.90
7028;DHT22;3555;53.248;10.336;2023-08-20T02:48:06;19.90;99.90
7028;DHT22;3555;53.248;10.336;2023-08-20T02:50:33;19.90;99.90
7028;DHT22;3555;53.248;10.336;2023-08-20T02:53:00;19.80;99.90
7028;DHT22;3555;53.248;10.336;2023-08-20T02:55:28;19.80;99.90
7028;DHT22;3555;53.248;10.336;2023-08-20T02:57:55;19.70;99.90
7028;DHT22;3555;53.248;10.336;2023-08-20T03:00:22;19.70;99.90
7028;DHT22;3555;53.248;10.336;2023-08-20T03:02:49;19.80;99.90
7028;DHT22;3555;53.248;10.336;2023-08-20T03:05:16;19.90;99.90
7028;DHT22;3555;53.248;10.336;2023-08-20T03:07:43;19.80;99.90
7028;DHT22;3555;53.248;10.336;2023-08-20T03:10:10;19.70;99.90
7028;DHT22;3555;53.248;10.336;2023-08-20T03:12:38;19.70;99.90
7028;DHT22;3555;53.248;10.336;2023-08-20T03:15:06;19.80;99.90
7028;DHT22;3555;53.248;10.336;2023-08-20T03:17:33;19.80;99.90
7028;DHT22;3555;53.248;10.336;2023-08-20T03:20:00;19.80;99.90
7028;DHT22;3555;53.248;10.336;2023-08-20T03:22:29;19.80;99.90
7028;DHT22;3555;53.248;10.336;2023-08-20T03:24:56;19.90;99.90
7028;DHT22;3555;53.248;10.336;2023-08-20T03:27:23;20.00;99.90
7028;DHT22;3555;53.248;10.336;2023-08-20T03:29:52;20.10;99.90
7028;DHT22;3555;53.248;10.336;2023-08-20T03:32:18;20.20;99.90
7028;DHT22;3555;53.248;10.336;2023-08-20T03:34:45;20.20;99.90
7028;DHT22;3555;53.248;10.336;2023-08-20T03:37:12;20.30;99.90
7028;DHT22;3555;53.248;10.336;2023-08-20T03:39:39;20.40;99.90
7028;DHT22;3555;53.248;10.336;2023-08-20T03:42:06;20.40;99.90
7028;DHT22;3555;53.248;10.336;2023-08-20T03:44:33;20.40;99.90
7028;DHT22;3555;53.248;10.336;2023-08-20T03:47:01;20.40;99.90
7028;DHT22;3555;53.248;10.336;2023-08-20T03:49:28;20.50;99.90
7028;DHT22;3555;53.248;10.336;2023-08-20T03:51:55;20.30;99.90
7028;DHT22;3555;53.248;10.336;2023-08-20T03:54:22;20.30;99.90
7028;DHT22;3555;53.248;10.336;2023-08-20T03:56:48;20.20;99.90
7028;DHT22;3555;53.248;10.336;2023-08-20T03:59:15;20.20;99.90
7028;DHT22;3555;53.248;10.336;2023-08-20T04:01:42;20.30;99.90
7028;DHT22;3555;53.248;10.336;2023-08-20T04:04:10;20.30;99.90
7028;DHT22;3555;53.248;10.336;2023-08-20T04:06:37;20.30;99.90
7028;DHT22;3555;53.248;10.336;2023-08-20T04:09:04;20.40;99.90
7028;DHT22;3555;53.248;10.336;2023-08-20T04:11:31;20.40;99.90
7028;DHT22;3555;53.248;10.336;2023-08-20T04:13:58;20.40;99.90
7028;DHT22;3555;53.248;10.336;2023-08-20T04:16:25;20.40;99.90
7028;DHT22;3555;53.248;10.336;2023-08-20T04:18:52;20.40;99.90
7028;DHT22;3555;53.248;10.336;2023-08-20T04:21:20;20.30;99.90
7028;DHT22;3555;53.248;10.336;2023-08-20T04:23:47;20.30;99.90
7028;DHT22;3555;53.248;10.336;2023-08-20T04:26:14;20.20;99.90
7028;DHT22;3555;53.248;10.336;2023-08-20T04:28:41;20.10;99.90
7028;DHT22;3555;53.248;10.336;2023-08-20T04:31:08;20.10;99.90
7028;DHT22;3555;53.248;10.336;2023-08-20T04:33:35;19.90;99.90
7028;DHT22;3555;53.248;10.336;2023-08-20T04:36:02;19.90;99.90
7028;DHT22;3555;53.248;10.336;2023-08-20T04:38:30;19.90;99.90
7028;DHT22;3555;53.248;10.336;2023-08-20T04:40:57;19.90;99.90
7028;DHT22;3555;53.248;10.336;2023-08-20T04:43:23;19.90;99.90
7028;DHT22;3555;53.248;10.336;2023-08-20T04:45:50;19.90;99.90
7028;DHT22;3555;53.248;10.336;2023-08-20T04:48:17;19.90;99.90
7028;DHT22;3555;53.248;10.336;2023-08-20T04:50:44;19.90;99.90
7028;DHT22;3555;53.248;10.336;2023-08-20T04:53:11;19.80;99.90
7028;DHT22;3555;53.248;10.336;2023-08-20T04:55:39;19.90;99.90
7028;DHT22;3555;53.248;10.336;2023-08-20T04:58:06;19.80;99.90
7028;DHT22;3555;53.248;10.336;2023-08-20T05:00:33;19.90;99.90
7028;DHT22;3555;53.248;10.336;2023-08-20T05:03:00;20.00;99.90
7028;DHT22;3555;53.248;10.336;2023-08-20T05:05:27;20.10;99.90
7028;DHT22;3555;53.248;10.336;2023-08-20T05:07:53;20.20;99.90
7028;DHT22;3555;53.248;10.336;2023-08-20T05:10:20;20.20;99.90
7028;DHT22;3555;53.248;10.336;2023-08-20T05:12:49;20.20;99.90
7028;DHT22;3555;53.248;10.336;2023-08-20T05:15:16;20.20;99.90
7028;DHT22;3555;53.248;10.336;2023-08-20T05:17:42;20.20;99.90
7028;DHT22;3555;53.248;10.336;2023-08-20T05:20:10;20.40;99.90
7028;DHT22;3555;53.248;10.336;2023-08-20T05:22:37;20.40;99.90
7028;DHT22;3555;53.248;10.336;2023-08-20T05:25:04;20.40;99.90
7028;DHT22;3555;53.248;10.336;2023-08-20T05:27:31;20.30;99.90
7028;DHT22;3555;53.248;10.336;2023-08-20T05:29:59;20.30;99.90
7028;DHT22;3555;53.248;10.336;2023-08-20T05:32:26;20.30;99.90
7028;DHT22;3555;53.248;10.336;2023-08-20T05:34:53;20.40;99.90
7028;DHT22;3555;53.248;10.336;2023-08-20T05:37:20;20.60;99.90
7028;DHT22;3555;53.248;10.336;2023-08-20T05:39:47;20.70;99.90
7028;DHT22;3555;53.248;10.336;2023-08-20T05:42:14;20.80;99.90
7028;DHT22;3555;53.248;10.336;2023-08-20T05:44:41;21.10;99.90
7028;DHT22;3555;53.248;10.336;2023-08-20T05:47:10;21.30;99.90
7028;DHT22;3555;53.248;10.336;2023-08-20T05:49:36;21.60;99.90
7028;DHT22;3555;53.248;10.336;2023-08-20T05:52:04;21.60;96.10
7028;DHT22;3555;53.248;10.336;2023-08-20T05:54:30;21.90;99.90
7028;DHT22;3555;53.248;10.336;2023-08-20T05:56:58;22.10;1.00
7028;DHT22;3555;53.248;10.336;2023-08-20T05:59:25;22.40;1.00
7028;DHT22;3555;53.248;10.336;2023-08-20T06:01:52;22.80;1.00
7028;DHT22;3555;53.248;10.336;2023-08-20T06:04:21;23.00;1.00
7028;DHT22;3555;53.248;10.336;2023-08-20T06:06:48;22.80;99.90
7028;DHT22;3555;53.248;10.336;2023-08-20T06:09:14;22.40;99.90
7028;DHT22;3555;53.248;10.336;2023-08-20T06:11:41;22.60;99.90
7028;DHT22;3555;53.248;10.336;2023-08-20T06:14:08;22.80;1.00
7028;DHT22;3555;53.248;10.336;2023-08-20T06:16:35;22.90;1.00
7028;DHT22;3555;53.248;10.336;2023-08-20T06:19:02;23.10;99.90
7028;DHT22;3555;53.248;10.336;2023-08-20T06:21:30;23.30;1.00
7028;DHT22;3555;53.248;10.336;2023-08-20T06:23:57;23.50;1.00
7028;DHT22;3555;53.248;10.336;2023-08-20T06:26:24;23.80;1.00
7028;DHT22;3555;53.248;10.336;2023-08-20T06:28:51;23.60;1.00
7028;DHT22;3555;53.248;10.336;2023-08-20T06:31:18;23.70;99.90
7028;DHT22;3555;53.248;10.336;2023-08-20T06:33:44;23.90;1.00
7028;DHT22;3555;53.248;10.336;2023-08-20T06:36:13;24.10;99.90
7028;DHT22;3555;53.248;10.336;2023-08-20T06:38:41;24.10;1.00
7028;DHT22;3555;53.248;10.336;2023-08-20T06:41:08;24.50;22.60
7028;DHT22;3555;53.248;10.336;2023-08-20T06:43:35;24.80;99.90
7028;DHT22;3555;53.248;10.336;2023-08-20T06:46:02;24.90;1.00
7028;DHT22;3555;53.248;10.336;2023-08-20T06:48:28;25.10;1.00
7028;DHT22;3555;53.248;10.336;2023-08-20T06:50:55;25.20;1.00
7028;DHT22;3555;53.248;10.336;2023-08-20T06:53:22;25.30;1.00
7028;DHT22;3555;53.248;10.336;2023-08-20T06:55:50;25.50;1.00
7028;DHT22;3555;53.248;10.336;2023-08-20T06:58:17;25.60;1.00
7028;DHT22;3555;53.248;10.336;2023-08-20T07:00:44;25.60;99.90
7028;DHT22;3555;53.248;10.336;2023-08-20T07:03:11;25.70;99.90
7028;DHT22;3555;53.248;10.336;2023-08-20T07:05:38;25.90;99.90
7028;DHT22;3555;53.248;10.336;2023-08-20T07:08:05;26.30;99.90
7028;DHT22;3555;53.248;10.336;2023-08-20T07:10:32;26.40;32.10
7028;DHT22;3555;53.248;10.336;2023-08-20T07:13:00;26.50;99.90
7028;DHT22;3555;53.248;10.336;2023-08-20T07:15:27;26.80;99.90
7028;DHT22;3555;53.248;10.336;2023-08-20T07:17:53;27.00;1.00
7028;DHT22;3555;53.248;10.336;2023-08-20T07:20:20;27.10;1.00
7028;DHT22;3555;53.248;10.336;2023-08-20T07:22:47;27.10;1.00
7028;DHT22;3555;53.248;10.336;2023-08-20T07:25:14;27.40;1.00
7028;DHT22;3555;53.248;10.336;2023-08-20T07:27:41;27.80;1.00
7028;DHT22;3555;53.248;10.336;2023-08-20T07:30:11;28.10;99.90
7028;DHT22;3555;53.248;10.336;2023-08-20T07:32:38;28.10;99.90
7028;DHT22;3555;53.248;10.336;2023-08-20T07:35:05;28.00;99.90
7028;DHT22;3555;53.248;10.336;2023-08-20T07:37:32;28.10;99.90
7028;DHT22;3555;53.248;10.336;2023-08-20T07:39:59;28.40;99.90
7028;DHT22;3555;53.248;10.336;2023-08-20T07:42:26;28.70;99.90
7028;DHT22;3555;53.248;10.336;2023-08-20T07:44:53;29.10;99.90
7028;DHT22;3555;53.248;10.336;2023-08-20T07:47:21;29.10;99.90
7028;DHT22;3555;53.248;10.336;2023-08-20T07:49:48;29.10;99.90
7028;DHT22;3555;53.248;10.336;2023-08-20T07:52:15;29.10;99.90
7028;DHT22;3555;53.248;10.336;2023-08-20T07:54:42;29.20;99.90
7028;DHT22;3555;53.248;10.336;2023-08-20T07:57:10;29.30;99.90
7028;DHT22;3555;53.248;10.336;2023-08-20T07:59:37;29.40;99.90
7028;DHT22;3555;53.248;10.336;2023-08-20T08:02:04;29.40;99.90
7028;DHT22;3555;53.248;10.336;2023-08-20T08:04:33;29.30;99.90
7028;DHT22;3555;53.248;10.336;2023-08-20T08:07:00;29.60;99.90
7028;DHT22;3555;53.248;10.336;2023-08-20T08:09:28;29.80;99.90
7028;DHT22;3555;53.248;10.336;2023-08-20T08:11:55;29.60;99.90
7028;DHT22;3555;53.248;10.336;2023-08-20T08:14:22;29.60;99.90
7028;DHT22;3555;53.248;10.336;2023-08-20T08:16:49;29.80;99.90
7028;DHT22;3555;53.248;10.336;2023-08-20T08:19:17;29.70;99.90
7028;DHT22;3555;53.248;10.336;2023-08-20T08:21:45;29.60;98.10
7028;DHT22;3555;53.248;10.336;2023-08-20T08:24:13;29.50;99.90
7028;DHT22;3555;53.248;10.336;2023-08-20T08:26:40;29.20;99.90
7028;DHT22;3555;53.248;10.336;2023-08-20T08:29:08;29.00;99.90
7028;DHT22;3555;53.248;10.336;2023-08-20T08:31:35;29.00;99.90
7028;DHT22;3555;53.248;10.336;2023-08-20T08:34:02;28.90;99.90
7028;DHT22;3555;53.248;10.336;2023-08-20T08:36:29;29.00;99.90
7028;DHT22;3555;53.248;10.336;2023-08-20T08:38:58;29.20;99.90
7028;DHT22;3555;53.248;10.336;2023-08-20T08:41:25;29.30;99.90
7028;DHT22;3555;53.248;10.336;2023-08-20T08:43:54;29.10;99.90
7028;DHT22;3555;53.248;10.336;2023-08-20T08:46:23;29.20;99.90
7028;DHT22;3555;53.248;10.336;2023-08-20T08:48:51;29.20;99.90
7028;DHT22;3555;53.248;10.336;2023-08-20T08:51:18;29.30;99.90
7028;DHT22;3555;53.248;10.336;2023-08-20T08:53:46;29.50;99.90
7028;DHT22;3555;53.248;10.336;2023-08-20T08:56:14;29.80;99.90
7028;DHT22;3555;53.248;10.336;2023-08-20T08:58:41;30.20;99.90
7028;DHT22;3555;53.248;10.336;2023-08-20T09:01:08;30.40;1.00
7028;DHT22;3555;53.248;10.336;2023-08-20T09:03:35;30.50;1.00
7028;DHT22;3555;53.248;10.336;2023-08-20T09:06:08;30.70;1.00
7028;DHT22;3555;53.248;10.336;2023-08-20T09:08:35;30.80;1.00
7028;DHT22;3555;53.248;10.336;2023-08-20T09:11:02;30.90;1.00
7028;DHT22;3555;53.248;10.336;2023-08-20T09:13:35;30.90;1.00
7028;DHT22;3555;53.248;10.336;2023-08-20T09:16:06;30.80;1.00
7028;DHT22;3555;53.248;10.336;2023-08-20T09:18:38;30.60;1.00
7028;DHT22;3555;53.248;10.336;2023-08-20T09:21:07;30.80;1.00
7028;DHT22;3555;53.248;10.336;2023-08-20T09:23:34;30.90;1.00
7028;DHT22;3555;53.248;10.336;2023-08-20T09:26:02;31.00;39.80
7028;DHT22;3555;53.248;10.336;2023-08-20T09:28:30;31.20;1.00
7028;DHT22;3555;53.248;10.336;2023-08-20T09:31:08;31.50;1.00
7028;DHT22;3555;53.248;10.336;2023-08-20T09:33:35;31.70;1.00
7028;DHT22;3555;53.248;10.336;2023-08-20T09:36:03;32.00;1.00
7028;DHT22;3555;53.248;10.336;2023-08-20T09:38:29;32.30;1.00
7028;DHT22;3555;53.248;10.336;2023-08-20T09:41:02;32.40;1.00
7028;DHT22;3555;53.248;10.336;2023-08-20T09:43:31;32.50;1.00
7028;DHT22;3555;53.248;10.336;2023-08-20T09:46:02;32.40;1.00
7028;DHT22;3555;53.248;10.336;2023-08-20T09:48:33;32.60;1.00
7028;DHT22;3555;53.248;10.336;2023-08-20T09:51:03;32.80;1.00
7028;DHT22;3555;53.248;10.336;2023-08-20T09:53:35;32.80;1.00
7028;DHT22;3555;53.248;10.336;2023-08-20T09:56:09;32.70;1.00
7028;DHT22;3555;53.248;10.336;2023-08-20T09:58:37;33.00;1.00
7028;DHT22;3555;53.248;10.336;2023-08-20T10:01:06;33.20;1.00
7028;DHT22;3555;53.248;10.336;2023-08-20T10:03:34;33.40;1.00
7028;DHT22;3555;53.248;10.336;2023-08-20T10:06:03;33.50;1.00
7028;DHT22;3555;53.248;10.336;2023-08-20T10:08:32;33.50;1.00
7028;DHT22;3555;53.248;10.336;2023-08-20T10:10:59;33.50;1.00
7028;DHT22;3555;53.248;10.336;2023-08-20T10:13:27;33.80;1.00
7028;DHT22;3555;53.248;10.336;2023-08-20T10:15:54;33.90;1.00
7028;DHT22;3555;53.248;10.336;2023-08-20T10:18:22;34.10;1.00
7028;DHT22;3555;53.248;10.336;2023-08-20T10:20:51;34.20;1.00
7028;DHT22;3555;53.248;10.336;2023-08-20T10:23:21;34.10;1.00
7028;DHT22;3555;53.248;10.336;2023-08-20T10:25:48;34.10;1.00
7028;DHT22;3555;53.248;10.336;2023-08-20T10:28:21;33.80;1.00
7028;DHT22;3555;53.248;10.336;2023-08-20T10:31:05;33.30;1.00
7028;DHT22;3555;53.248;10.336;2023-08-20T10:33:33;32.80;1.00
7028;DHT22;3555;53.248;10.336;2023-08-20T10:36:09;32.50;1.00
7028;DHT22;3555;53.248;10.336;2023-08-20T10:38:36;32.70;1.00
7028;DHT22;3555;53.248;10.336;2023-08-20T10:41:06;33.00;1.00
7028;DHT22;3555;53.248;10.336;2023-08-20T10:43:35;33.10;1.00
7028;DHT22;3555;53.248;10.336;2023-08-20T10:46:08;33.30;1.00
7028;DHT22;3555;53.248;10.336;2023-08-20T10:48:36;33.60;1.00
7028;DHT22;3555;53.248;10.336;2023-08-20T10:51:12;33.80;1.00
7028;DHT22;3555;53.248;10.336;2023-08-20T10:53:41;33.80;1.00
7028;DHT22;3555;53.248;10.336;2023-08-20T10:56:12;33.70;1.00
7028;DHT22;3555;53.248;10.336;2023-08-20T10:58:44;33.50;1.00
7028;DHT22;3555;53.248;10.336;2023-08-20T11:01:17;33.10;1.00
7028;DHT22;3555;53.248;10.336;2023-08-20T11:03:45;33.10;1.00
7028;DHT22;3555;53.248;10.336;2023-08-20T11:06:13;33.30;1.00
7028;DHT22;3555;53.248;10.336;2023-08-20T11:08:41;33.50;1.00
7028;DHT22;3555;53.248;10.336;2023-08-20T11:11:09;33.50;1.00
7028;DHT22;3555;53.248;10.336;2023-08-20T11:13:37;33.60;1.00
7028;DHT22;3555;53.248;10.336;2023-08-20T11:16:06;33.50;1.00
7028;DHT22;3555;53.248;10.336;2023-08-20T11:18:34;33.50;1.00
7028;DHT22;3555;53.248;10.336;2023-08-20T11:21:01;33.70;1.00
7028;DHT22;3555;53.248;10.336;2023-08-20T11:23:31;33.50;1.00
7028;DHT22;3555;53.248;10.336;2023-08-20T11:25:58;33.70;1.00
7028;DHT22;3555;53.248;10.336;2023-08-20T11:28:26;33.80;1.00
7028;DHT22;3555;53.248;10.336;2023-08-20T11:30:54;34.10;1.00
7028;DHT22;3555;53.248;10.336;2023-08-20T11:33:22;34.40;1.00
7028;DHT22;3555;53.248;10.336;2023-08-20T11:35:49;34.80;1.00
7028;DHT22;3555;53.248;10.336;2023-08-20T11:38:16;35.20;1.00
7028;DHT22;3555;53.248;10.336;2023-08-20T11:40:45;35.40;1.00
7028;DHT22;3555;53.248;10.336;2023-08-20T11:43:12;35.70;1.00
7028;DHT22;3555;53.248;10.336;2023-08-20T11:45:46;36.00;1.00
7028;DHT22;3555;53.248;10.336;2023-08-20T11:48:14;36.00;1.00
7028;DHT22;3555;53.248;10.336;2023-08-20T11:50:41;36.20;1.00
7028;DHT22;3555;53.248;10.336;2023-08-20T11:53:08;36.30;1.00
7028;DHT22;3555;53.248;10.336;2023-08-20T11:55:40;36.60;1.00
7028;DHT22;3555;53.248;10.336;2023-08-20T11:58:13;36.90;1.00
7028;DHT22;3555;53.248;10.336;2023-08-20T12:00:40;37.10;1.00
7028;DHT22;3555;53.248;10.336;2023-08-20T12:03:08;37.30;1.00
7028;DHT22;3555;53.248;10.336;2023-08-20T12:05:35;37.40;1.00
7028;DHT22;3555;53.248;10.336;2023-08-20T12:08:03;37.40;1.00
7028;DHT22;3555;53.248;10.336;2023-08-20T12:10:31;37.40;1.00
7028;DHT22;3555;53.248;10.336;2023-08-20T12:12:58;37.30;1.00
7028;DHT22;3555;53.248;10.336;2023-08-20T12:15:27;37.30;1.00
7028;DHT22;3555;53.248;10.336;2023-08-20T12:18:00;37.30;1.00
7028;DHT22;3555;53.248;10.336;2023-08-20T12:20:30;37.10;1.00
7028;DHT22;3555;53.248;10.336;2023-08-20T12:23:02;36.70;1.00
7028;DHT22;3555;53.248;10.336;2023-08-20T12:25:31;36.30;1.00
7028;DHT22;3555;53.248;10.336;2023-08-20T12:27:59;36.10;1.00
7028;DHT22;3555;53.248;10.336;2023-08-20T12:30:27;35.90;1.00
7028;DHT22;3555;53.248;10.336;2023-08-20T12:32:54;35.80;1.00
7028;DHT22;3555;53.248;10.336;2023-08-20T12:35:21;35.70;1.00
7028;DHT22;3555;53.248;10.336;2023-08-20T12:37:48;35.80;1.00
7028;DHT22;3555;53.248;10.336;2023-08-20T12:40:15;35.60;1.00
7028;DHT22;3555;53.248;10.336;2023-08-20T12:42:42;35.30;1.00
7028;DHT22;3555;53.248;10.336;2023-08-20T12:45:10;34.80;1.00
7028;DHT22;3555;53.248;10.336;2023-08-20T12:47:39;34.90;1.00
7028;DHT22;3555;53.248;10.336;2023-08-20T12:50:07;34.70;1.00
7028;DHT22;3555;53.248;10.336;2023-08-20T12:52:34;34.40;1.00
7028;DHT22;3555;53.248;10.336;2023-08-20T12:55:02;34.10;1.00
7028;DHT22;3555;53.248;10.336;2023-08-20T12:57:30;33.90;1.00
7028;DHT22;3555;53.248;10.336;2023-08-20T12:59:56;34.00;1.00
7028;DHT22;3555;53.248;10.336;2023-08-20T13:02:25;34.00;1.00
7028;DHT22;3555;53.248;10.336;2023-08-20T13:04:53;33.80;1.00
7028;DHT22;3555;53.248;10.336;2023-08-20T13:07:21;33.40;1.00
7028;DHT22;3555;53.248;10.336;2023-08-20T13:09:48;33.20;1.00
7028;DHT22;3555;53.248;10.336;2023-08-20T13:12:17;32.80;1.00
7028;DHT22;3555;53.248;10.336;2023-08-20T13:14:45;32.90;1.00
7028;DHT22;3555;53.248;10.336;2023-08-20T13:17:12;33.20;1.00
7028;DHT22;3555;53.248;10.336;2023-08-20T13:19:39;33.50;1.00
7028;DHT22;3555;53.248;10.336;2023-08-20T13:22:08;33.60;1.00
7028;DHT22;3555;53.248;10.336;2023-08-20T13:24:35;33.80;1.00
7028;DHT22;3555;53.248;10.336;2023-08-20T13:27:01;33.60;1.00
7028;DHT22;3555;53.248;10.336;2023-08-20T13:29:28;33.80;1.00
7028;DHT22;3555;53.248;10.336;2023-08-20T13:31:55;33.70;1.00
7028;DHT22;3555;53.248;10.336;2023-08-20T13:34:22;33.70;1.00
7028;DHT22;3555;53.248;10.336;2023-08-20T13:36:49;33.90;1.00
7028;DHT22;3555;53.248;10.336;2023-08-20T13:39:17;33.80;1.00
7028;DHT22;3555;53.248;10.336;2023-08-20T13:41:45;33.90;1.00
7028;DHT22;3555;53.248;10.336;2023-08-20T13:44:12;34.10;1.00
7028;DHT22;3555;53.248;10.336;2023-08-20T13:46:39;33.60;1.00
7028;DHT22;3555;53.248;10.336;2023-08-20T13:49:06;33.50;1.00
7028;DHT22;3555;53.248;10.336;2023-08-20T13:51:33;33.70;1.00
7028;DHT22;3555;53.248;10.336;2023-08-20T13:54:00;33.70;1.00
7028;DHT22;3555;53.248;10.336;2023-08-20T13:56:28;33.70;1.00
7028;DHT22;3555;53.248;10.336;2023-08-20T13:58:55;33.90;1.00
7028;DHT22;3555;53.248;10.336;2023-08-20T14:01:22;34.10;1.00
7028;DHT22;3555;53.248;10.336;2023-08-20T14:03:49;34.40;1.00
7028;DHT22;3555;53.248;10.336;2023-08-20T14:06:16;34.40;1.00
7028;DHT22;3555;53.248;10.336;2023-08-20T14:08:43;34.60;1.00
7028;DHT22;3555;53.248;10.336;2023-08-20T14:11:10;34.40;1.00
7028;DHT22;3555;53.248;10.336;2023-08-20T14:13:38;35.00;1.00
7028;DHT22;3555;53.248;10.336;2023-08-20T14:16:05;34.80;1.00
7028;DHT22;3555;53.248;10.336;2023-08-20T14:18:32;35.10;1.00
7028;DHT22;3555;53.248;10.336;2023-08-20T14:20:59;35.30;1.00
7028;DHT22;3555;53.248;10.336;2023-08-20T14:23:26;35.20;1.00
7028;DHT22;3555;53.248;10.336;2023-08-20T14:25:53;35.20;1.00
7028;DHT22;3555;53.248;10.336;2023-08-20T14:28:21;34.90;1.00
7028;DHT22;3555;53.248;10.336;2023-08-20T14:30:50;35.00;1.00
7028;DHT22;3555;53.248;10.336;2023-08-20T14:33:19;35.10;1.00
7028;DHT22;3555;53.248;10.336;2023-08-20T14:35:46;34.70;1.00
7028;DHT22;3555;53.248;10.336;2023-08-20T14:38:13;34.60;1.00
7028;DHT22;3555;53.248;10.336;2023-08-20T14:40:40;34.70;1.00
7028;DHT22;3555;53.248;10.336;2023-08-20T14:43:07;34.80;1.00
7028;DHT22;3555;53.248;10.336;2023-08-20T14:45:34;35.00;1.00
7028;DHT22;3555;53.248;10.336;2023-08-20T14:48:02;34.80;1.00
7028;DHT22;3555;53.248;10.336;2023-08-20T14:50:29;34.70;1.00
7028;DHT22;3555;53.248;10.336;2023-08-20T14:52:56;34.80;1.00
7028;DHT22;3555;53.248;10.336;2023-08-20T14:55:23;34.90;1.00
7028;DHT22;3555;53.248;10.336;2023-08-20T14:57:50;35.10;1.00
7028;DHT22;3555;53.248;10.336;2023-08-20T15:00:17;35.20;1.00
7028;DHT22;3555;53.248;10.336;2023-08-20T15:02:44;35.20;1.00
7028;DHT22;3555;53.248;10.336;2023-08-20T15:05:12;35.40;1.00
7028;DHT22;3555;53.248;10.336;2023-08-20T15:07:39;35.40;1.00
7028;DHT22;3555;53.248;10.336;2023-08-20T15:10:07;35.40;1.00
7028;DHT22;3555;53.248;10.336;2023-08-20T15:12:35;35.40;1.00
7028;DHT22;3555;53.248;10.336;2023-08-20T15:15:03;35.50;1.00
7028;DHT22;3555;53.248;10.336;2023-08-20T15:17:31;35.50;1.00
7028;DHT22;3555;53.248;10.336;2023-08-20T15:19:58;35.60;1.00
7028;DHT22;3555;53.248;10.336;2023-08-20T15:22:27;35.70;1.00
7028;DHT22;3555;53.248;10.336;2023-08-20T15:24:54;35.60;1.00
7028;DHT22;3555;53.248;10.336;2023-08-20T15:27:23;35.70;1.00
7028;DHT22;3555;53.248;10.336;2023-08-20T15:29:51;35.70;1.00
7028;DHT22;3555;53.248;10.336;2023-08-20T15:32:18;35.40;1.00
7028;DHT22;3555;53.248;10.336;2023-08-20T15:34:46;35.40;1.00
7028;DHT22;3555;53.248;10.336;2023-08-20T15:37:14;35.30;1.00
7028;DHT22;3555;53.248;10.336;2023-08-20T15:39:42;34.60;1.00
7028;DHT22;3555;53.248;10.336;2023-08-20T15:42:09;34.60;1.00
7028;DHT22;3555;53.248;10.336;2023-08-20T15:44:38;34.70;1.00
7028;DHT22;3555;53.248;10.336;2023-08-20T15:47:05;34.70;1.00
7028;DHT22;3555;53.248;10.336;2023-08-20T15:49:32;34.70;1.00
7028;DHT22;3555;53.248;10.336;2023-08-20T15:51:59;34.60;1.00
7028;DHT22;3555;53.248;10.336;2023-08-20T15:54:26;34.70;1.00
7028;DHT22;3555;53.248;10.336;2023-08-20T15:56:54;34.60;1.00
7028;DHT22;3555;53.248;10.336;2023-08-20T15:59:21;34.40;1.00